sensor_id;sensor_type;location;lat;lon;timestamp;P1;durP1;ratioP1;P2;durP2;ratioP2
1585;SDS011;786;48.718;9.514;2022-07-04T00:01:18;4.20;;;2.60;;
1585;SDS011;786;48.718;9.514;2022-07-04T00:03:44;3.13;;;2.83;;
1585;SDS011;786;48.718;9.514;2022-07-04T00:06:11;4.33;;;2.70;;
1585;SDS011;786;48.718;9.514;2022-07-04T00:08:37;2.47;;;2.27;;
1585;SDS011;786;48.718;9.514;2022-07-04T00:11:03;3.07;;;2.50;;
1585;SDS011;786;48.718;9.514;2022-07-04T00:13:31;4.17;;;2.37;;
1585;SDS011;786;48.718;9.514;2022-07-04T00:15:57;2.53;;;2.30;;
1585;SDS011;786;48.718;9.514;2022-07-04T00:18:23;3.13;;;2.83;;
1585;SDS011;786;48.718;9.514;2022-07-04T00:20:50;2.50;;;2.30;;
1585;SDS011;786;48.718;9.514;2022-07-04T00:23:18;2.20;;;2.10;;
1585;SDS011;786;48.718;9.514;2022-07-04T00:25:44;2.87;;;2.67;;
1585;SDS011;786;48.718;9.514;2022-07-04T00:28:10;3.60;;;2.50;;
1585;SDS011;786;48.718;9.514;2022-07-04T00:30:38;4.73;;;2.70;;
1585;SDS011;786;48.718;9.514;2022-07-04T00:33:04;2.60;;;2.40;;
1585;SDS011;786;48.718;9.514;2022-07-04T00:35:30;3.47;;;2.60;;
1585;SDS011;786;48.718;9.514;2022-07-04T00:37:56;5.00;;;2.87;;
1585;SDS011;786;48.718;9.514;2022-07-04T00:40:23;4.90;;;3.10;;
1585;SDS011;786;48.718;9.514;2022-07-04T00:42:49;3.20;;;3.00;;
1585;SDS011;786;48.718;9.514;2022-07-04T00:45:15;2.80;;;2.60;;
1585;SDS011;786;48.718;9.514;2022-07-04T00:47:43;3.13;;;2.73;;
1585;SDS011;786;48.718;9.514;2022-07-04T00:50:09;3.97;;;2.27;;
1585;SDS011;786;48.718;9.514;2022-07-04T00:52:35;2.90;;;2.70;;
1585;SDS011;786;48.718;9.514;2022-07-04T00:55:02;2.73;;;2.53;;
1585;SDS011;786;48.718;9.514;2022-07-04T00:57:29;2.90;;;2.70;;
1585;SDS011;786;48.718;9.514;2022-07-04T00:59:55;3.53;;;2.53;;
1585;SDS011;786;48.718;9.514;2022-07-04T01:02:22;3.97;;;2.47;;
1585;SDS011;786;48.718;9.514;2022-07-04T01:04:49;3.10;;;2.73;;
1585;SDS011;786;48.718;9.514;2022-07-04T01:07:15;3.53;;;3.20;;
1585;SDS011;786;48.718;9.514;2022-07-04T01:09:42;5.83;;;2.80;;
1585;SDS011;786;48.718;9.514;2022-07-04T01:12:08;2.90;;;2.70;;
1585;SDS011;786;48.718;9.514;2022-07-04T01:14:36;2.77;;;2.57;;
1585;SDS011;786;48.718;9.514;2022-07-04T01:17:02;5.87;;;2.63;;
1585;SDS011;786;48.718;9.514;2022-07-04T01:19:29;4.03;;;2.93;;
1585;SDS011;786;48.718;9.514;2022-07-04T01:21:56;2.70;;;2.50;;
1585;SDS011;786;48.718;9.514;2022-07-04T01:24:22;5.90;;;2.80;;
1585;SDS011;786;48.718;9.514;2022-07-04T01:26:49;3.50;;;3.20;;
1585;SDS011;786;48.718;9.514;2022-07-04T01:29:15;3.50;;;3.10;;
1585;SDS011;786;48.718;9.514;2022-07-04T01:31:42;2.70;;;2.53;;
1585;SDS011;786;48.718;9.514;2022-07-04T01:34:08;4.00;;;3.40;;
1585;SDS011;786;48.718;9.514;2022-07-04T01:36:35;3.33;;;3.10;;
1585;SDS011;786;48.718;9.514;2022-07-04T01:39:02;3.57;;;2.67;;
1585;SDS011;786;48.718;9.514;2022-07-04T01:41:32;3.43;;;3.23;;
1585;SDS011;786;48.718;9.514;2022-07-04T01:43:58;3.67;;;3.07;;
1585;SDS011;786;48.718;9.514;2022-07-04T01:46:25;3.63;;;3.33;;
1585;SDS011;786;48.718;9.514;2022-07-04T01:48:51;4.50;;;4.20;;
1585;SDS011;786;48.718;9.514;2022-07-04T01:51:17;3.50;;;3.20;;
1585;SDS011;786;48.718;9.514;2022-07-04T01:53:43;3.40;;;2.90;;
1585;SDS011;786;48.718;9.514;2022-07-04T01:56:11;3.27;;;2.97;;
1585;SDS011;786;48.718;9.514;2022-07-04T01:58:37;4.77;;;3.30;;
1585;SDS011;786;48.718;9.514;2022-07-04T02:01:03;4.13;;;3.13;;
1585;SDS011;786;48.718;9.514;2022-07-04T02:03:47;5.10;;;3.10;;
1585;SDS011;786;48.718;9.514;2022-07-04T02:06:13;2.83;;;2.63;;
1585;SDS011;786;48.718;9.514;2022-07-04T02:08:39;6.40;;;3.30;;
1585;SDS011;786;48.718;9.514;2022-07-04T02:11:25;2.67;;;2.43;;
1585;SDS011;786;48.718;9.514;2022-07-04T02:13:52;3.00;;;2.80;;
1585;SDS011;786;48.718;9.514;2022-07-04T02:16:17;4.37;;;2.73;;
1585;SDS011;786;48.718;9.514;2022-07-04T02:18:44;7.33;;;2.87;;
1585;SDS011;786;48.718;9.514;2022-07-04T02:21:10;2.83;;;2.63;;
1585;SDS011;786;48.718;9.514;2022-07-04T02:23:36;3.00;;;2.60;;
1585;SDS011;786;48.718;9.514;2022-07-04T02:26:02;3.73;;;2.70;;
1585;SDS011;786;48.718;9.514;2022-07-04T02:28:30;3.20;;;2.80;;
1585;SDS011;786;48.718;9.514;2022-07-04T02:30:56;3.30;;;3.10;;
1585;SDS011;786;48.718;9.514;2022-07-04T02:33:22;4.93;;;2.80;;
1585;SDS011;786;48.718;9.514;2022-07-04T02:35:49;2.80;;;2.50;;
1585;SDS011;786;48.718;9.514;2022-07-04T02:38:15;4.47;;;2.80;;
1585;SDS011;786;48.718;9.514;2022-07-04T02:40:41;8.47;;;3.27;;
1585;SDS011;786;48.718;9.514;2022-07-04T02:43:07;4.40;;;2.90;;
1585;SDS011;786;48.718;9.514;2022-07-04T02:45:35;6.63;;;3.20;;
1585;SDS011;786;48.718;9.514;2022-07-04T02:48:01;4.00;;;2.93;;
1585;SDS011;786;48.718;9.514;2022-07-04T02:50:27;4.87;;;3.27;;
1585;SDS011;786;48.718;9.514;2022-07-04T02:52:54;3.60;;;3.00;;
1585;SDS011;786;48.718;9.514;2022-07-04T02:55:20;3.50;;;3.23;;
1585;SDS011;786;48.718;9.514;2022-07-04T02:57:46;3.77;;;3.43;;
1585;SDS011;786;48.718;9.514;2022-07-04T03:00:13;5.30;;;3.80;;
1585;SDS011;786;48.718;9.514;2022-07-04T03:02:41;3.30;;;2.87;;
1585;SDS011;786;48.718;9.514;2022-07-04T03:05:07;4.83;;;3.23;;
1585;SDS011;786;48.718;9.514;2022-07-04T03:07:34;6.40;;;3.30;;
1585;SDS011;786;48.718;9.514;2022-07-04T03:10:00;2.80;;;2.60;;
1585;SDS011;786;48.718;9.514;2022-07-04T03:12:26;3.53;;;3.33;;
1585;SDS011;786;48.718;9.514;2022-07-04T03:14:52;4.93;;;3.07;;
1585;SDS011;786;48.718;9.514;2022-07-04T03:17:19;3.57;;;2.93;;
1585;SDS011;786;48.718;9.514;2022-07-04T03:19:46;3.17;;;2.97;;
1585;SDS011;786;48.718;9.514;2022-07-04T03:22:13;3.80;;;2.80;;
1585;SDS011;786;48.718;9.514;2022-07-04T03:24:39;3.20;;;2.77;;
1585;SDS011;786;48.718;9.514;2022-07-04T03:27:05;2.43;;;2.33;;
1585;SDS011;786;48.718;9.514;2022-07-04T03:29:31;2.83;;;2.40;;
1585;SDS011;786;48.718;9.514;2022-07-04T03:31:58;3.10;;;2.83;;
1585;SDS011;786;48.718;9.514;2022-07-04T03:34:24;2.70;;;2.50;;
1585;SDS011;786;48.718;9.514;2022-07-04T03:36:52;3.23;;;2.93;;
1585;SDS011;786;48.718;9.514;2022-07-04T03:39:18;5.03;;;2.90;;
1585;SDS011;786;48.718;9.514;2022-07-04T03:41:44;3.80;;;2.73;;
1585;SDS011;786;48.718;9.514;2022-07-04T03:44:10;3.97;;;3.10;;
1585;SDS011;786;48.718;9.514;2022-07-04T03:46:37;4.47;;;3.47;;
1585;SDS011;786;48.718;9.514;2022-07-04T03:49:03;3.00;;;2.80;;
1585;SDS011;786;48.718;9.514;2022-07-04T03:51:29;3.13;;;2.83;;
1585;SDS011;786;48.718;9.514;2022-07-04T03:53:57;2.93;;;2.70;;
1585;SDS011;786;48.718;9.514;2022-07-04T03:56:23;3.80;;;2.77;;
1585;SDS011;786;48.718;9.514;2022-07-04T03:58:49;3.73;;;3.23;;
1585;SDS011;786;48.718;9.514;2022-07-04T04:01:16;2.80;;;2.60;;
1585;SDS011;786;48.718;9.514;2022-07-04T04:03:42;2.77;;;2.60;;
1585;SDS011;786;48.718;9.514;2022-07-04T04:06:26;3.27;;;3.07;;
1585;SDS011;786;48.718;9.514;2022-07-04T04:08:52;3.07;;;2.77;;
1585;SDS011;786;48.718;9.514;2022-07-04T04:11:20;3.67;;;3.37;;
1585;SDS011;786;48.718;9.514;2022-07-04T04:13:46;5.20;;;2.80;;
1585;SDS011;786;48.718;9.514;2022-07-04T04:16:13;6.43;;;2.70;;
1585;SDS011;786;48.718;9.514;2022-07-04T04:18:39;3.33;;;3.03;;
1585;SDS011;786;48.718;9.514;2022-07-04T04:21:05;6.10;;;3.17;;
1585;SDS011;786;48.718;9.514;2022-07-04T04:23:32;3.53;;;3.23;;
1585;SDS011;786;48.718;9.514;2022-07-04T04:25:58;3.50;;;2.83;;
1585;SDS011;786;48.718;9.514;2022-07-04T04:28:26;2.73;;;2.50;;
1585;SDS011;786;48.718;9.514;2022-07-04T04:30:52;3.53;;;3.00;;
1585;SDS011;786;48.718;9.514;2022-07-04T04:33:18;2.53;;;2.33;;
1585;SDS011;786;48.718;9.514;2022-07-04T04:35:45;3.17;;;2.87;;
1585;SDS011;786;48.718;9.514;2022-07-04T04:38:11;2.80;;;2.60;;
1585;SDS011;786;48.718;9.514;2022-07-04T04:40:37;4.33;;;2.70;;
1585;SDS011;786;48.718;9.514;2022-07-04T04:43:03;2.87;;;2.67;;
1585;SDS011;786;48.718;9.514;2022-07-04T04:45:31;5.30;;;2.50;;
1585;SDS011;786;48.718;9.514;2022-07-04T04:47:57;2.83;;;2.60;;
1585;SDS011;786;48.718;9.514;2022-07-04T04:50:23;3.20;;;2.90;;
1585;SDS011;786;48.718;9.514;2022-07-04T04:52:50;3.20;;;2.43;;
1585;SDS011;786;48.718;9.514;2022-07-04T04:55:16;2.20;;;2.10;;
1585;SDS011;786;48.718;9.514;2022-07-04T04:57:42;3.73;;;2.70;;
1585;SDS011;786;48.718;9.514;2022-07-04T05:00:09;2.80;;;2.43;;
1585;SDS011;786;48.718;9.514;2022-07-04T05:02:37;2.70;;;2.50;;
1585;SDS011;786;48.718;9.514;2022-07-04T05:05:03;2.37;;;2.17;;
1585;SDS011;786;48.718;9.514;2022-07-04T05:07:31;6.13;;;2.17;;
1585;SDS011;786;48.718;9.514;2022-07-04T05:09:57;2.67;;;2.20;;
1585;SDS011;786;48.718;9.514;2022-07-04T05:12:24;2.77;;;2.57;;
1585;SDS011;786;48.718;9.514;2022-07-04T05:14:50;2.20;;;2.00;;
1585;SDS011;786;48.718;9.514;2022-07-04T05:17:16;2.57;;;2.37;;
1585;SDS011;786;48.718;9.514;2022-07-04T05:19:44;2.37;;;2.17;;
1585;SDS011;786;48.718;9.514;2022-07-04T05:22:10;2.70;;;2.40;;
1585;SDS011;786;48.718;9.514;2022-07-04T05:24:37;3.57;;;2.57;;
1585;SDS011;786;48.718;9.514;2022-07-04T05:27:04;2.57;;;2.33;;
1585;SDS011;786;48.718;9.514;2022-07-04T05:29:30;2.70;;;2.50;;
1585;SDS011;786;48.718;9.514;2022-07-04T05:31:57;2.83;;;2.63;;
1585;SDS011;786;48.718;9.514;2022-07-04T05:34:23;3.10;;;2.83;;
1585;SDS011;786;48.718;9.514;2022-07-04T05:36:51;4.50;;;2.60;;
1585;SDS011;786;48.718;9.514;2022-07-04T05:39:17;2.53;;;2.33;;
1585;SDS011;786;48.718;9.514;2022-07-04T05:41:43;4.53;;;2.53;;
1585;SDS011;786;48.718;9.514;2022-07-04T05:44:09;2.73;;;2.53;;
1585;SDS011;786;48.718;9.514;2022-07-04T05:46:36;3.00;;;2.60;;
1585;SDS011;786;48.718;9.514;2022-07-04T05:49:02;4.57;;;2.57;;
1585;SDS011;786;48.718;9.514;2022-07-04T05:51:28;3.63;;;2.50;;
1585;SDS011;786;48.718;9.514;2022-07-04T05:53:56;5.53;;;2.40;;
1585;SDS011;786;48.718;9.514;2022-07-04T05:56:22;5.93;;;4.77;;
1585;SDS011;786;48.718;9.514;2022-07-04T05:58:49;11.30;;;8.97;;
1585;SDS011;786;48.718;9.514;2022-07-04T06:01:15;8.53;;;7.73;;
1585;SDS011;786;48.718;9.514;2022-07-04T06:03:41;5.80;;;5.30;;
1585;SDS011;786;48.718;9.514;2022-07-04T06:06:08;3.40;;;3.10;;
1585;SDS011;786;48.718;9.514;2022-07-04T06:08:34;3.10;;;2.57;;
1585;SDS011;786;48.718;9.514;2022-07-04T06:11:02;3.60;;;2.37;;
1585;SDS011;786;48.718;9.514;2022-07-04T06:13:29;2.00;;;1.80;;
1585;SDS011;786;48.718;9.514;2022-07-04T06:15:55;5.83;;;2.27;;
1585;SDS011;786;48.718;9.514;2022-07-04T06:18:21;3.43;;;2.37;;
1585;SDS011;786;48.718;9.514;2022-07-04T06:20:49;3.57;;;2.40;;
1585;SDS011;786;48.718;9.514;2022-07-04T06:23:15;3.70;;;1.90;;
1585;SDS011;786;48.718;9.514;2022-07-04T06:25:41;2.93;;;1.87;;
1585;SDS011;786;48.718;9.514;2022-07-04T06:28:09;3.50;;;1.97;;
1585;SDS011;786;48.718;9.514;2022-07-04T06:30:35;2.30;;;1.80;;
1585;SDS011;786;48.718;9.514;2022-07-04T06:33:02;2.97;;;1.83;;
1585;SDS011;786;48.718;9.514;2022-07-04T06:35:30;4.90;;;1.90;;
1585;SDS011;786;48.718;9.514;2022-07-04T06:38:11;2.63;;;2.10;;
1585;SDS011;786;48.718;9.514;2022-07-04T06:40:38;2.60;;;2.00;;
1585;SDS011;786;48.718;9.514;2022-07-04T06:43:04;3.70;;;1.80;;
1585;SDS011;786;48.718;9.514;2022-07-04T06:45:32;3.77;;;2.80;;
1585;SDS011;786;48.718;9.514;2022-07-04T06:47:59;2.73;;;2.00;;
1585;SDS011;786;48.718;9.514;2022-07-04T06:50:25;2.20;;;1.97;;
1585;SDS011;786;48.718;9.514;2022-07-04T06:52:52;2.20;;;2.00;;
1585;SDS011;786;48.718;9.514;2022-07-04T06:55:18;2.33;;;1.67;;
1585;SDS011;786;48.718;9.514;2022-07-04T06:57:44;2.10;;;1.83;;
1585;SDS011;786;48.718;9.514;2022-07-04T07:00:11;2.33;;;1.90;;
1585;SDS011;786;48.718;9.514;2022-07-04T07:02:39;2.73;;;2.17;;
1585;SDS011;786;48.718;9.514;2022-07-04T07:05:05;3.60;;;1.90;;
1585;SDS011;786;48.718;9.514;2022-07-04T07:07:32;4.60;;;2.20;;
1585;SDS011;786;48.718;9.514;2022-07-04T07:09:58;2.60;;;1.67;;
1585;SDS011;786;48.718;9.514;2022-07-04T07:12:24;2.33;;;1.93;;
1585;SDS011;786;48.718;9.514;2022-07-04T07:14:50;3.47;;;2.37;;
1585;SDS011;786;48.718;9.514;2022-07-04T07:17:17;2.57;;;1.93;;
1585;SDS011;786;48.718;9.514;2022-07-04T07:19:45;3.83;;;2.03;;
1585;SDS011;786;48.718;9.514;2022-07-04T07:22:11;3.27;;;1.87;;
1585;SDS011;786;48.718;9.514;2022-07-04T07:24:38;3.57;;;1.87;;
1585;SDS011;786;48.718;9.514;2022-07-04T07:27:04;4.13;;;3.33;;
1585;SDS011;786;48.718;9.514;2022-07-04T07:29:31;2.23;;;1.80;;
1585;SDS011;786;48.718;9.514;2022-07-04T07:31:57;2.80;;;2.60;;
1585;SDS011;786;48.718;9.514;2022-07-04T07:34:23;3.00;;;2.40;;
1585;SDS011;786;48.718;9.514;2022-07-04T07:36:51;2.37;;;2.17;;
1585;SDS011;786;48.718;9.514;2022-07-04T07:39:17;1.83;;;1.73;;
1585;SDS011;786;48.718;9.514;2022-07-04T07:41:43;1.97;;;1.70;;
1585;SDS011;786;48.718;9.514;2022-07-04T07:44:10;2.20;;;2.00;;
1585;SDS011;786;48.718;9.514;2022-07-04T07:46:36;2.87;;;1.80;;
1585;SDS011;786;48.718;9.514;2022-07-04T07:49:02;2.30;;;2.10;;
1585;SDS011;786;48.718;9.514;2022-07-04T07:51:29;2.47;;;2.20;;
1585;SDS011;786;48.718;9.514;2022-07-04T07:53:56;2.00;;;1.83;;
1585;SDS011;786;48.718;9.514;2022-07-04T07:56:23;2.90;;;2.60;;
1585;SDS011;786;48.718;9.514;2022-07-04T07:58:50;3.03;;;1.77;;
1585;SDS011;786;48.718;9.514;2022-07-04T08:01:16;4.30;;;2.00;;
1585;SDS011;786;48.718;9.514;2022-07-04T08:03:42;2.63;;;2.30;;
1585;SDS011;786;48.718;9.514;2022-07-04T08:06:25;4.30;;;2.40;;
1585;SDS011;786;48.718;9.514;2022-07-04T08:08:52;2.60;;;2.00;;
1585;SDS011;786;48.718;9.514;2022-07-04T08:11:19;2.93;;;2.30;;
1585;SDS011;786;48.718;9.514;2022-07-04T08:13:46;2.03;;;1.83;;
1585;SDS011;786;48.718;9.514;2022-07-04T08:16:12;3.43;;;2.50;;
1585;SDS011;786;48.718;9.514;2022-07-04T08:18:39;3.60;;;2.53;;
1585;SDS011;786;48.718;9.514;2022-07-04T08:21:05;2.60;;;2.33;;
1585;SDS011;786;48.718;9.514;2022-07-04T08:23:32;2.53;;;2.00;;
1585;SDS011;786;48.718;9.514;2022-07-04T08:25:58;3.27;;;2.10;;
1585;SDS011;786;48.718;9.514;2022-07-04T08:28:26;2.27;;;2.00;;
1585;SDS011;786;48.718;9.514;2022-07-04T08:30:53;2.40;;;2.20;;
1585;SDS011;786;48.718;9.514;2022-07-04T08:33:19;2.20;;;2.00;;
1585;SDS011;786;48.718;9.514;2022-07-04T08:35:45;3.97;;;1.87;;
1585;SDS011;786;48.718;9.514;2022-07-04T08:38:11;1.70;;;1.60;;
1585;SDS011;786;48.718;9.514;2022-07-04T08:40:38;3.47;;;2.83;;
1585;SDS011;786;48.718;9.514;2022-07-04T08:43:06;2.20;;;2.00;;
1585;SDS011;786;48.718;9.514;2022-07-04T08:45:33;1.87;;;1.77;;
1585;SDS011;786;48.718;9.514;2022-07-04T08:48:00;5.37;;;2.20;;
1585;SDS011;786;48.718;9.514;2022-07-04T08:50:29;2.50;;;2.00;;
1585;SDS011;786;48.718;9.514;2022-07-04T08:52:56;2.33;;;2.13;;
1585;SDS011;786;48.718;9.514;2022-07-04T08:55:24;4.50;;;2.10;;
1585;SDS011;786;48.718;9.514;2022-07-04T08:58:11;3.37;;;2.00;;
1585;SDS011;786;48.718;9.514;2022-07-04T09:00:56;2.20;;;2.00;;
1585;SDS011;786;48.718;9.514;2022-07-04T09:03:22;2.63;;;2.07;;
1585;SDS011;786;48.718;9.514;2022-07-04T09:05:49;3.07;;;2.77;;
1585;SDS011;786;48.718;9.514;2022-07-04T09:08:15;3.00;;;2.27;;
1585;SDS011;786;48.718;9.514;2022-07-04T09:10:41;2.90;;;1.80;;
1585;SDS011;786;48.718;9.514;2022-07-04T09:13:08;3.40;;;2.00;;
1585;SDS011;786;48.718;9.514;2022-07-04T09:15:35;4.13;;;2.20;;
1585;SDS011;786;48.718;9.514;2022-07-04T09:18:03;3.10;;;2.03;;
1585;SDS011;786;48.718;9.514;2022-07-04T09:20:29;4.93;;;1.93;;
1585;SDS011;786;48.718;9.514;2022-07-04T09:22:56;2.30;;;2.10;;
1585;SDS011;786;48.718;9.514;2022-07-04T09:25:23;2.43;;;2.20;;
1585;SDS011;786;48.718;9.514;2022-07-04T09:27:50;4.50;;;2.60;;
1585;SDS011;786;48.718;9.514;2022-07-04T09:30:17;2.57;;;2.37;;
1585;SDS011;786;48.718;9.514;2022-07-04T09:32:45;3.57;;;2.30;;
1585;SDS011;786;48.718;9.514;2022-07-04T09:35:14;2.13;;;1.90;;
1585;SDS011;786;48.718;9.514;2022-07-04T09:37:42;3.10;;;2.50;;
1585;SDS011;786;48.718;9.514;2022-07-04T09:40:10;3.03;;;2.10;;
1585;SDS011;786;48.718;9.514;2022-07-04T09:42:45;2.90;;;2.60;;
1585;SDS011;786;48.718;9.514;2022-07-04T09:45:12;2.67;;;2.47;;
1585;SDS011;786;48.718;9.514;2022-07-04T09:47:39;4.27;;;2.53;;
1585;SDS011;786;48.718;9.514;2022-07-04T09:50:06;3.00;;;2.37;;
1585;SDS011;786;48.718;9.514;2022-07-04T09:52:44;2.60;;;2.40;;
1585;SDS011;786;48.718;9.514;2022-07-04T09:55:10;2.70;;;2.40;;
1585;SDS011;786;48.718;9.514;2022-07-04T09:57:37;2.57;;;2.10;;
1585;SDS011;786;48.718;9.514;2022-07-04T10:00:15;4.43;;;2.07;;
1585;SDS011;786;48.718;9.514;2022-07-04T10:02:41;3.07;;;2.10;;
1585;SDS011;786;48.718;9.514;2022-07-04T10:05:08;3.63;;;2.03;;
1585;SDS011;786;48.718;9.514;2022-07-04T10:07:35;2.93;;;1.90;;
1585;SDS011;786;48.718;9.514;2022-07-04T10:12:44;2.20;;;2.00;;
1585;SDS011;786;48.718;9.514;2022-07-04T10:15:14;4.33;;;2.40;;
1585;SDS011;786;48.718;9.514;2022-07-04T10:17:40;2.33;;;2.17;;
1585;SDS011;786;48.718;9.514;2022-07-04T10:20:07;5.40;;;2.53;;
1585;SDS011;786;48.718;9.514;2022-07-04T10:22:34;2.33;;;2.23;;
1585;SDS011;786;48.718;9.514;2022-07-04T10:25:00;4.23;;;2.43;;
1585;SDS011;786;48.718;9.514;2022-07-04T10:27:27;2.83;;;2.47;;
1585;SDS011;786;48.718;9.514;2022-07-04T10:29:54;3.03;;;2.73;;
1585;SDS011;786;48.718;9.514;2022-07-04T10:32:21;2.67;;;2.47;;
1585;SDS011;786;48.718;9.514;2022-07-04T10:34:48;2.60;;;2.40;;
1585;SDS011;786;48.718;9.514;2022-07-04T10:37:14;2.83;;;2.63;;
1585;SDS011;786;48.718;9.514;2022-07-04T10:39:41;5.57;;;2.30;;
1585;SDS011;786;48.718;9.514;2022-07-04T10:42:07;2.70;;;2.50;;
1585;SDS011;786;48.718;9.514;2022-07-04T10:44:33;2.83;;;2.10;;
1585;SDS011;786;48.718;9.514;2022-07-04T10:47:04;2.90;;;2.20;;
1585;SDS011;786;48.718;9.514;2022-07-04T10:49:30;1.80;;;1.70;;
1585;SDS011;786;48.718;9.514;2022-07-04T10:52:07;2.27;;;2.07;;
1585;SDS011;786;48.718;9.514;2022-07-04T10:54:34;2.60;;;2.40;;
1585;SDS011;786;48.718;9.514;2022-07-04T10:57:09;2.37;;;2.17;;
1585;SDS011;786;48.718;9.514;2022-07-04T10:59:36;2.10;;;2.00;;
1585;SDS011;786;48.718;9.514;2022-07-04T11:04:52;2.40;;;2.20;;
1585;SDS011;786;48.718;9.514;2022-07-04T11:07:19;4.03;;;2.33;;
1585;SDS011;786;48.718;9.514;2022-07-04T11:09:45;2.73;;;2.53;;
1585;SDS011;786;48.718;9.514;2022-07-04T11:12:12;4.00;;;2.20;;
1585;SDS011;786;48.718;9.514;2022-07-04T11:14:40;2.50;;;2.30;;
1585;SDS011;786;48.718;9.514;2022-07-04T11:17:07;2.90;;;2.60;;
1585;SDS011;786;48.718;9.514;2022-07-04T11:19:34;2.83;;;2.50;;
1585;SDS011;786;48.718;9.514;2022-07-04T11:22:02;2.83;;;2.63;;
1585;SDS011;786;48.718;9.514;2022-07-04T11:24:30;2.60;;;2.37;;
1585;SDS011;786;48.718;9.514;2022-07-04T11:26:56;2.43;;;2.10;;
1585;SDS011;786;48.718;9.514;2022-07-04T11:29:23;2.00;;;1.90;;
1585;SDS011;786;48.718;9.514;2022-07-04T11:31:50;3.03;;;1.93;;
1585;SDS011;786;48.718;9.514;2022-07-04T11:34:16;1.97;;;1.87;;
1585;SDS011;786;48.718;9.514;2022-07-04T11:36:43;2.80;;;2.00;;
1585;SDS011;786;48.718;9.514;2022-07-04T11:39:12;2.23;;;2.03;;
1585;SDS011;786;48.718;9.514;2022-07-04T11:41:39;2.30;;;2.10;;
1585;SDS011;786;48.718;9.514;2022-07-04T11:44:24;2.00;;;1.90;;
1585;SDS011;786;48.718;9.514;2022-07-04T11:47:11;2.97;;;1.97;;
1585;SDS011;786;48.718;9.514;2022-07-04T11:49:44;3.73;;;2.00;;
1585;SDS011;786;48.718;9.514;2022-07-04T11:52:11;2.60;;;1.90;;
1585;SDS011;786;48.718;9.514;2022-07-04T11:54:39;2.20;;;2.10;;
1585;SDS011;786;48.718;9.514;2022-07-04T11:57:13;2.70;;;2.50;;
1585;SDS011;786;48.718;9.514;2022-07-04T11:59:39;2.57;;;2.37;;
1585;SDS011;786;48.718;9.514;2022-07-04T12:02:09;2.50;;;2.30;;
1585;SDS011;786;48.718;9.514;2022-07-04T12:04:36;2.27;;;2.17;;
1585;SDS011;786;48.718;9.514;2022-07-04T12:07:08;2.53;;;2.33;;
1585;SDS011;786;48.718;9.514;2022-07-04T12:09:34;3.47;;;2.40;;
1585;SDS011;786;48.718;9.514;2022-07-04T12:12:02;3.97;;;2.00;;
1585;SDS011;786;48.718;9.514;2022-07-04T12:14:29;1.80;;;1.70;;
1585;SDS011;786;48.718;9.514;2022-07-04T12:17:17;2.20;;;2.00;;
1585;SDS011;786;48.718;9.514;2022-07-04T12:19:50;2.00;;;1.77;;
1585;SDS011;786;48.718;9.514;2022-07-04T12:22:23;2.00;;;1.80;;
1585;SDS011;786;48.718;9.514;2022-07-04T12:24:50;1.87;;;1.77;;
1585;SDS011;786;48.718;9.514;2022-07-04T12:27:18;2.17;;;1.97;;
1585;SDS011;786;48.718;9.514;2022-07-04T12:29:47;3.87;;;2.27;;
1585;SDS011;786;48.718;9.514;2022-07-04T12:32:14;3.43;;;1.87;;
1585;SDS011;786;48.718;9.514;2022-07-04T12:34:40;2.37;;;1.80;;
1585;SDS011;786;48.718;9.514;2022-07-04T12:37:07;1.90;;;1.73;;
1585;SDS011;786;48.718;9.514;2022-07-04T12:39:34;4.23;;;2.07;;
1585;SDS011;786;48.718;9.514;2022-07-04T12:42:03;2.30;;;2.03;;
1585;SDS011;786;48.718;9.514;2022-07-04T12:44:31;3.00;;;2.00;;
1585;SDS011;786;48.718;9.514;2022-07-04T12:46:57;2.17;;;1.90;;
1585;SDS011;786;48.718;9.514;2022-07-04T12:49:24;2.23;;;2.00;;
1585;SDS011;786;48.718;9.514;2022-07-04T12:51:50;4.90;;;2.33;;
1585;SDS011;786;48.718;9.514;2022-07-04T12:54:17;2.00;;;1.80;;
1585;SDS011;786;48.718;9.514;2022-07-04T12:56:43;2.93;;;1.80;;
1585;SDS011;786;48.718;9.514;2022-07-04T12:59:11;1.90;;;1.80;;
1585;SDS011;786;48.718;9.514;2022-07-04T13:01:39;3.50;;;2.07;;
1585;SDS011;786;48.718;9.514;2022-07-04T13:04:05;2.90;;;1.90;;
1585;SDS011;786;48.718;9.514;2022-07-04T13:06:32;1.80;;;1.70;;
1585;SDS011;786;48.718;9.514;2022-07-04T13:08:59;3.20;;;2.00;;
1585;SDS011;786;48.718;9.514;2022-07-04T13:11:25;2.80;;;1.70;;
1585;SDS011;786;48.718;9.514;2022-07-04T13:14:09;2.50;;;1.83;;
1585;SDS011;786;48.718;9.514;2022-07-04T13:16:35;3.77;;;2.33;;
1585;SDS011;786;48.718;9.514;2022-07-04T13:19:02;1.80;;;1.70;;
1585;SDS011;786;48.718;9.514;2022-07-04T13:21:29;6.53;;;1.87;;
1585;SDS011;786;48.718;9.514;2022-07-04T13:23:55;1.83;;;1.73;;
1585;SDS011;786;48.718;9.514;2022-07-04T13:26:21;3.60;;;2.00;;
1585;SDS011;786;48.718;9.514;2022-07-04T13:28:48;3.97;;;1.97;;
1585;SDS011;786;48.718;9.514;2022-07-04T13:31:14;3.00;;;1.70;;
1585;SDS011;786;48.718;9.514;2022-07-04T13:33:40;2.50;;;1.70;;
1585;SDS011;786;48.718;9.514;2022-07-04T13:36:08;2.20;;;2.00;;
1585;SDS011;786;48.718;9.514;2022-07-04T13:38:34;4.10;;;2.10;;
1585;SDS011;786;48.718;9.514;2022-07-04T13:41:00;3.60;;;2.40;;
1585;SDS011;786;48.718;9.514;2022-07-04T13:43:27;2.30;;;1.93;;
1585;SDS011;786;48.718;9.514;2022-07-04T13:45:54;4.60;;;2.80;;
1585;SDS011;786;48.718;9.514;2022-07-04T13:48:21;5.97;;;2.10;;
1585;SDS011;786;48.718;9.514;2022-07-04T13:50:47;2.10;;;1.50;;
1585;SDS011;786;48.718;9.514;2022-07-04T13:53:15;2.43;;;1.70;;
1585;SDS011;786;48.718;9.514;2022-07-04T13:55:41;2.07;;;1.73;;
1585;SDS011;786;48.718;9.514;2022-07-04T13:58:09;1.73;;;1.63;;
1585;SDS011;786;48.718;9.514;2022-07-04T14:00:36;1.70;;;1.60;;
1585;SDS011;786;48.718;9.514;2022-07-04T14:03:02;4.20;;;2.00;;
1585;SDS011;786;48.718;9.514;2022-07-04T14:05:29;1.70;;;1.60;;
1585;SDS011;786;48.718;9.514;2022-07-04T14:07:55;2.00;;;1.80;;
1585;SDS011;786;48.718;9.514;2022-07-04T14:10:23;2.30;;;1.70;;
1585;SDS011;786;48.718;9.514;2022-07-04T14:12:49;2.73;;;1.80;;
1585;SDS011;786;48.718;9.514;2022-07-04T14:15:15;3.40;;;2.00;;
1585;SDS011;786;48.718;9.514;2022-07-04T14:17:42;2.17;;;1.70;;
1585;SDS011;786;48.718;9.514;2022-07-04T14:20:09;2.37;;;1.97;;
1585;SDS011;786;48.718;9.514;2022-07-04T14:22:35;3.63;;;1.73;;
1585;SDS011;786;48.718;9.514;2022-07-04T14:25:02;1.60;;;1.40;;
1585;SDS011;786;48.718;9.514;2022-07-04T14:27:29;1.83;;;1.70;;
1585;SDS011;786;48.718;9.514;2022-07-04T14:29:56;5.67;;;2.00;;
1585;SDS011;786;48.718;9.514;2022-07-04T14:32:22;2.47;;;1.60;;
1585;SDS011;786;48.718;9.514;2022-07-04T14:34:48;1.77;;;1.50;;
1585;SDS011;786;48.718;9.514;2022-07-04T14:37:14;3.20;;;2.00;;
1585;SDS011;786;48.718;9.514;2022-07-04T14:39:41;2.53;;;1.70;;
1585;SDS011;786;48.718;9.514;2022-07-04T14:42:08;2.60;;;1.80;;
1585;SDS011;786;48.718;9.514;2022-07-04T14:44:35;2.40;;;1.80;;
1585;SDS011;786;48.718;9.514;2022-07-04T14:47:04;1.93;;;1.80;;
1585;SDS011;786;48.718;9.514;2022-07-04T14:49:30;2.13;;;1.90;;
1585;SDS011;786;48.718;9.514;2022-07-04T14:51:57;2.30;;;2.10;;
1585;SDS011;786;48.718;9.514;2022-07-04T14:54:23;1.87;;;1.60;;
1585;SDS011;786;48.718;9.514;2022-07-04T14:56:49;3.50;;;1.77;;
1585;SDS011;786;48.718;9.514;2022-07-04T14:59:16;2.00;;;1.80;;
1585;SDS011;786;48.718;9.514;2022-07-04T15:01:43;2.00;;;1.70;;
1585;SDS011;786;48.718;9.514;2022-07-04T15:04:10;1.53;;;1.43;;
1585;SDS011;786;48.718;9.514;2022-07-04T15:06:36;2.53;;;2.00;;
1585;SDS011;786;48.718;9.514;2022-07-04T15:09:02;2.43;;;1.70;;
1585;SDS011;786;48.718;9.514;2022-07-04T15:11:30;1.63;;;1.53;;
1585;SDS011;786;48.718;9.514;2022-07-04T15:13:56;1.90;;;1.60;;
1585;SDS011;786;48.718;9.514;2022-07-04T15:16:22;3.40;;;2.30;;
1585;SDS011;786;48.718;9.514;2022-07-04T15:18:50;3.10;;;1.70;;
1585;SDS011;786;48.718;9.514;2022-07-04T15:21:17;7.07;;;1.80;;
1585;SDS011;786;48.718;9.514;2022-07-04T15:24:01;2.60;;;1.60;;
1585;SDS011;786;48.718;9.514;2022-07-04T15:26:40;3.10;;;1.60;;
1585;SDS011;786;48.718;9.514;2022-07-04T15:29:06;3.10;;;1.63;;
1585;SDS011;786;48.718;9.514;2022-07-04T15:31:33;3.77;;;1.87;;
1585;SDS011;786;48.718;9.514;2022-07-04T15:34:00;1.90;;;1.70;;
1585;SDS011;786;48.718;9.514;2022-07-04T15:36:27;4.70;;;1.70;;